Airfield :
LOGIN :

Register | Disclaimer

   EN    FR    IT 

 










Legend :    VFR   Marginal VFR   IFR   Intensive IFR   Very Intensive IFR
Visi :
Ceiling :
>= 8 km
>= 3000ft
5 to 8 km
1000 to 3000 ft
1500m to 5 km
500 to 1000 ft
800 to 1500m
200 to 500 ft
< 800m
< 200 ft
Symbols :   Thunderstorms  Fog  Heavy snow  Heavy precipitations  Wind > 20 kt
SIGMETs :     Misc.  Thunderstorms  Icing  Turbulence  Mountain Waves  Volcanic Ashes







- Airport Elevation : 137 ft
- IATA code : ARN


ESSA - Stockholm-Arlanda

CURRENT METAR :
  • 172250Z 29006KT CAVOK M11/M12 Q0997 R01L/29//51 R08/29//53 R01R/SNOCLO NOSIG

EXPIRED METARs :
  • 172220Z 29007KT CAVOK M10/M11 Q0996 R01L/29//51 R08/29//53 R01R/SNOCLO NOSIG
  • 172150Z 29007KT CAVOK M10/M12 Q0996 R01L/29//51 R08/29//53 R01R/SNOCLO NOSIG
  • 172120Z 29007KT 9999 BKN048 M10/M11 Q0996 R01L/29//51 R08/29//53 R01R/SNOCLO NOSIG
  • 172053Z 29007KT CAVOK M10/M11 Q0996 R01L/29//51 R08/29//53 R01R/SNOCLO NOSIG
  • 172020Z 26006KT CAVOK M09/M10 Q0995 R01L/29//63 R08/29//64 R01R/SNOCLO NOSIG

TAF TAF ESSA
Valid from the 17 at 18:00 until the 18 at 18:00 UTC


171730Z 1718/1818 29006KT CAVOK
No reported NOTAMs for that airfield.



MET'MAP, your aeronautical weather chart ! - Copyright ORBIFLY December 2007 - Disclaimer

ORBIFLY MET'MAP TEAM :

Programming & Development : Alexandra Zaïnal
Concept & Development : Baudouin d'Aumeries
Co-Development & Prog : Marc-Olivier Méhu
Technical & hardware support : Manuel Goepfert

Contact : metmap@orbifly.com




SOURCES & CREDITS :

   NOAA